Time;durP1;ratioP1;P1;durP2;ratioP2;P2;SDS_P1;SDS_P2;PMS_P1;PMS_P2;Temp;Humidity;BMP_temperature;BMP_pressure;BME280_temperature;BME280_humidity;BME280_pressure;Samples;Min_cycle;Max_cycle;Signal;HPM_P1;HPM_P2
2023/08/08 00:02:10;;;;;;;170.63;104.75;;;;;;;;;;7308960;19;142028;-75
2023/08/08 00:04:38;;;;;;;176.30;106.93;;;;;;;;;;7307308;19;140661;-76
2023/08/08 00:07:06;;;;;;;200.75;117.97;;;;;;;;;;7305257;19;141280;-75
2023/08/08 00:09:33;;;;;;;211.30;122.05;;;;;;;;;;7305776;19;140784;-76
2023/08/08 00:12:00;;;;;;;205.02;118.40;;;;;;;;;;7305313;19;140864;-75
2023/08/08 00:14:27;;;;;;;216.18;124.13;;;;;;;;;;7305387;19;140664;-75
2023/08/08 00:16:54;;;;;;;123.47;84.82;;;;;;;;;;7305655;19;140624;-75
2023/08/08 00:19:21;;;;;;;194.23;115.07;;;;;;;;;;7304345;19;141177;-75
2023/08/08 00:21:48;;;;;;;208.52;121.38;;;;;;;;;;7304998;19;141878;-75
2023/08/08 00:24:15;;;;;;;179.10;108.35;;;;;;;;;;7305549;19;140616;-75
2023/08/08 00:26:42;;;;;;;171.30;104.05;;;;;;;;;;7305169;19;140547;-75
2023/08/08 00:29:09;;;;;;;63.85;54.88;;;;;;;;;;7304977;19;140980;-76
2023/08/08 00:31:36;;;;;;;51.47;46.03;;;;;;;;;;7304838;19;141972;-76
2023/08/08 00:34:03;;;;;;;45.17;40.85;;;;;;;;;;7304977;19;140649;-75
2023/08/08 00:36:30;;;;;;;49.47;44.53;;;;;;;;;;7305301;19;140553;-75
2023/08/08 00:38:58;;;;;;;44.20;40.13;;;;;;;;;;7305412;19;141417;-76
2023/08/08 00:41:25;;;;;;;52.97;47.47;;;;;;;;;;7304946;19;141943;-75
2023/08/08 00:43:52;;;;;;;45.17;40.92;;;;;;;;;;7306181;19;140419;-76
2023/08/08 00:46:21;;;;;;;50.03;45.00;;;;;;;;;;7306564;19;140626;-76
2023/08/08 00:48:52;;;;;;;64.65;53.17;;;;;;;;;;7305575;19;140883;-75
2023/08/08 00:51:19;;;;;;;39.17;35.47;;;;;;;;;;7305933;19;143704;-76
2023/08/08 00:53:47;;;;;;;39.38;35.67;;;;;;;;;;7305840;19;140582;-76
2023/08/08 00:56:16;;;;;;;37.78;34.42;;;;;;;;;;7304382;19;140834;-75
2023/08/08 00:58:50;;;;;;;33.78;30.83;;;;;;;;;;7305894;19;141879;-75
2023/08/08 01:01:18;;;;;;;28.83;26.08;;;;;;;;;;7304501;19;140750;-76
2023/08/08 01:03:46;;;;;;;27.55;25.23;;;;;;;;;;7304447;19;140614;-76
2023/08/08 01:06:18;;;;;;;32.20;29.52;;;;;;;;;;7304858;19;140505;-75
2023/08/08 01:09:04;;;;;;;20.23;18.17;;;;;;;;;;7304052;19;140708;-76
2023/08/08 01:11:33;;;;;;;22.17;20.38;;;;;;;;;;7304065;19;141556;-76
2023/08/08 01:14:02;;;;;;;34.35;31.40;;;;;;;;;;7305358;19;140358;-75
2023/08/08 01:16:30;;;;;;;25.65;23.52;;;;;;;;;;7305137;19;140671;-77
2023/08/08 01:18:58;;;;;;;23.23;21.30;;;;;;;;;;7304416;19;140992;-75
2023/08/08 01:21:27;;;;;;;32.40;29.50;;;;;;;;;;7306811;19;142604;-74
2023/08/08 01:24:00;;;;;;;21.45;19.80;;;;;;;;;;7312022;19;140482;-76
2023/08/08 01:26:28;;;;;;;20.30;18.52;;;;;;;;;;7308649;19;140708;-76
2023/08/08 01:28:55;;;;;;;18.90;17.23;;;;;;;;;;7305000;19;140600;-76
2023/08/08 01:31:23;;;;;;;22.02;20.38;;;;;;;;;;7304153;19;142881;-76
2023/08/08 01:33:50;;;;;;;26.30;24.08;;;;;;;;;;7303658;19;140639;-75
2023/08/08 01:36:27;;;;;;;13.25;12.05;;;;;;;;;;7303554;19;140673;-76
2023/08/08 01:38:56;;;;;;;16.23;14.55;;;;;;;;;;7302867;19;141011;-75
2023/08/08 01:41:23;;;;;;;15.85;14.70;;;;;;;;;;7303716;19;140838;-76
2023/08/08 01:43:50;;;;;;;14.05;12.75;;;;;;;;;;7303877;19;140541;-75
2023/08/08 01:46:17;;;;;;;16.15;14.93;;;;;;;;;;7303719;19;140592;-76
2023/08/08 01:48:46;;;;;;;12.82;11.90;;;;;;;;;;7302720;19;140982;-75
2023/08/08 01:51:13;;;;;;;15.85;14.70;;;;;;;;;;7301599;19;140824;-76
2023/08/08 01:53:40;;;;;;;23.30;21.50;;;;;;;;;;7303216;19;140469;-75
2023/08/08 01:56:08;;;;;;;11.75;10.50;;;;;;;;;;7303568;19;140589;-76
2023/08/08 01:58:35;;;;;;;16.77;15.50;;;;;;;;;;7301850;19;141664;-76
2023/08/08 02:01:02;;;;;;;20.65;18.88;;;;;;;;;;7302026;19;141894;-76
2023/08/08 02:03:29;;;;;;;9.75;9.05;;;;;;;;;;7302481;19;140917;-76
2023/08/08 02:05:56;;;;;;;10.35;9.55;;;;;;;;;;7302251;19;140438;-76
2023/08/08 02:08:23;;;;;;;9.15;8.43;;;;;;;;;;7301907;19;140815;-75
2023/08/08 02:10:50;;;;;;;11.10;10.07;;;;;;;;;;7302437;19;142078;-76
2023/08/08 02:13:18;;;;;;;16.25;14.95;;;;;;;;;;7301648;19;140561;-76
2023/08/08 02:15:45;;;;;;;9.63;8.82;;;;;;;;;;7300925;19;140585;-76
2023/08/08 02:18:12;;;;;;;13.45;12.13;;;;;;;;;;7301109;19;141179;-76
2023/08/08 02:20:39;;;;;;;18.50;17.02;;;;;;;;;;7301581;19;142116;-76
2023/08/08 02:23:07;;;;;;;9.18;8.32;;;;;;;;;;7303450;19;140702;-75
2023/08/08 02:25:34;;;;;;;8.63;8.00;;;;;;;;;;7301947;19;140409;-76
2023/08/08 02:28:01;;;;;;;11.32;10.35;;;;;;;;;;7303790;19;141694;-76
2023/08/08 02:30:28;;;;;;;15.35;14.15;;;;;;;;;;7300193;19;142113;-76
2023/08/08 02:32:55;;;;;;;19.92;18.27;;;;;;;;;;7302883;19;140774;-75
2023/08/08 02:35:22;;;;;;;13.80;12.52;;;;;;;;;;7302624;19;140759;-76
2023/08/08 02:37:49;;;;;;;8.40;7.72;;;;;;;;;;7302617;19;141273;-75
2023/08/08 02:40:17;;;;;;;16.17;14.82;;;;;;;;;;7302300;19;140616;-76
2023/08/08 02:42:44;;;;;;;7.10;6.45;;;;;;;;;;7303271;19;140615;-76
2023/08/08 02:45:11;;;;;;;9.90;8.95;;;;;;;;;;7302610;19;140838;-76
2023/08/08 02:47:38;;;;;;;19.38;17.98;;;;;;;;;;7303281;19;142879;-76
2023/08/08 02:50:05;;;;;;;22.27;20.35;;;;;;;;;;7301542;19;142065;-76
2023/08/08 02:52:33;;;;;;;12.32;10.80;;;;;;;;;;7301364;19;140455;-76
2023/08/08 02:55:00;;;;;;;7.38;6.82;;;;;;;;;;7301253;19;140566;-75
2023/08/08 02:57:27;;;;;;;10.27;9.32;;;;;;;;;;7302385;19;140915;-76
2023/08/08 02:59:55;;;;;;;13.02;11.90;;;;;;;;;;7302425;19;142854;-75
2023/08/08 03:02:22;;;;;;;19.17;17.52;;;;;;;;;;7302292;19;140593;-76
2023/08/08 03:04:52;;;;;;;19.67;18.27;;;;;;;;;;7301986;19;140535;-76
2023/08/08 03:07:20;;;;;;;9.25;8.57;;;;;;;;;;7300832;19;141159;-76
2023/08/08 03:09:47;;;;;;;12.98;12.05;;;;;;;;;;7300612;19;142190;-76
2023/08/08 03:12:14;;;;;;;26.45;24.15;;;;;;;;;;7300633;19;140606;-76
2023/08/08 03:14:41;;;;;;;19.67;18.08;;;;;;;;;;7300407;19;140908;-76
2023/08/08 03:17:08;;;;;;;19.20;17.55;;;;;;;;;;7299619;19;141028;-76
2023/08/08 03:19:35;;;;;;;20.73;19.05;;;;;;;;;;7298218;19;142956;-75
2023/08/08 03:22:02;;;;;;;23.48;21.60;;;;;;;;;;7300858;19;140638;-75
2023/08/08 03:24:29;;;;;;;7.72;7.15;;;;;;;;;;7299773;19;140806;-76
2023/08/08 03:26:56;;;;;;;8.40;7.65;;;;;;;;;;7306543;19;141661;-76
2023/08/08 03:29:23;;;;;;;10.70;9.85;;;;;;;;;;7306802;19;140637;-75
2023/08/08 03:31:50;;;;;;;18.15;16.58;;;;;;;;;;7307454;19;140420;-76
2023/08/08 03:34:17;;;;;;;12.60;11.38;;;;;;;;;;7305702;19;140678;-76
2023/08/08 03:36:45;;;;;;;14.18;12.88;;;;;;;;;;7305920;19;141621;-75
2023/08/08 03:39:12;;;;;;;18.75;17.25;;;;;;;;;;7306351;19;141906;-76
2023/08/08 03:41:39;;;;;;;21.63;19.85;;;;;;;;;;7304774;19;140695;-76
2023/08/08 03:44:06;;;;;;;23.75;21.88;;;;;;;;;;7306547;19;140538;-76
2023/08/08 03:46:33;;;;;;;11.27;10.40;;;;;;;;;;7306154;19;140576;-76
2023/08/08 03:49:00;;;;;;;8.73;7.88;;;;;;;;;;7306444;19;141897;-75
2023/08/08 03:51:27;;;;;;;7.10;6.22;;;;;;;;;;7307666;19;140668;-75
2023/08/08 03:53:54;;;;;;;10.70;9.70;;;;;;;;;;7307207;19;140505;-75
2023/08/08 03:56:21;;;;;;;10.13;8.95;;;;;;;;;;7307412;19;141494;-75
2023/08/08 03:58:48;;;;;;;11.23;9.95;;;;;;;;;;7307397;19;141842;-76
2023/08/08 04:01:17;;;;;;;19.73;18.25;;;;;;;;;;7307856;19;140715;-76
2023/08/08 04:03:45;;;;;;;12.30;11.40;;;;;;;;;;7306976;19;140677;-76
2023/08/08 04:06:12;;;;;;;14.73;13.30;;;;;;;;;;7305306;19;140970;-76
2023/08/08 04:08:39;;;;;;;24.40;22.33;;;;;;;;;;7305204;19;141900;-76
2023/08/08 04:11:06;;;;;;;36.10;32.85;;;;;;;;;;7305673;19;140650;-76
2023/08/08 04:13:33;;;;;;;35.20;31.95;;;;;;;;;;7305984;19;140704;-75
2023/08/08 04:16:00;;;;;;;17.25;15.63;;;;;;;;;;7305941;19;141271;-76
2023/08/08 04:18:27;;;;;;;14.70;13.20;;;;;;;;;;7304810;19;143106;-76
2023/08/08 04:20:55;;;;;;;14.75;13.30;;;;;;;;;;7305121;19;140735;-76
2023/08/08 04:23:25;;;;;;;21.73;20.02;;;;;;;;;;7305896;19;140514;-76
2023/08/08 04:25:52;;;;;;;21.63;19.67;;;;;;;;;;7304759;19;141027;-75
2023/08/08 04:28:19;;;;;;;36.30;32.97;;;;;;;;;;7304115;19;141666;-76
2023/08/08 04:30:46;;;;;;;32.80;29.75;;;;;;;;;;7305962;19;140758;-75
2023/08/08 04:33:13;;;;;;;28.42;26.05;;;;;;;;;;7305196;19;140683;-76
2023/08/08 04:35:40;;;;;;;14.55;13.50;;;;;;;;;;7304601;19;141727;-76
2023/08/08 04:38:08;;;;;;;19.52;17.55;;;;;;;;;;7302709;19;142741;-76
2023/08/08 04:40:35;;;;;;;27.77;25.67;;;;;;;;;;7304935;19;141028;-76
2023/08/08 04:43:04;;;;;;;39.15;35.78;;;;;;;;;;7306392;19;140581;-76
2023/08/08 04:45:31;;;;;;;27.25;25.15;;;;;;;;;;7304255;19;141548;-76
2023/08/08 04:47:59;;;;;;;14.20;12.80;;;;;;;;;;7302701;19;142600;-76
2023/08/08 04:50:26;;;;;;;18.58;16.77;;;;;;;;;;7304561;19;140754;-76
2023/08/08 04:52:53;;;;;;;17.98;16.25;;;;;;;;;;7303842;19;141109;-76
2023/08/08 04:55:20;;;;;;;18.52;17.20;;;;;;;;;;7304642;19;141012;-76
2023/08/08 04:57:47;;;;;;;21.67;20.02;;;;;;;;;;7304296;19;142788;-76
2023/08/08 05:00:14;;;;;;;23.67;21.90;;;;;;;;;;7306084;19;140666;-76
2023/08/08 05:02:41;;;;;;;26.30;24.23;;;;;;;;;;7306513;19;140760;-75
2023/08/08 05:05:09;;;;;;;21.40;19.83;;;;;;;;;;7305188;19;141204;-75
2023/08/08 05:07:37;;;;;;;24.88;22.85;;;;;;;;;;7303132;19;141807;-75
2023/08/08 05:10:04;;;;;;;28.25;25.90;;;;;;;;;;7305036;19;140615;-75
2023/08/08 05:12:32;;;;;;;40.80;37.03;;;;;;;;;;7305531;19;140730;-75
2023/08/08 05:14:59;;;;;;;26.55;24.35;;;;;;;;;;7304478;19;140496;-76
2023/08/08 05:17:26;;;;;;;41.05;37.35;;;;;;;;;;7303346;19;142426;-78
2023/08/08 05:19:53;;;;;;;45.17;40.88;;;;;;;;;;7304355;19;141315;-76
2023/08/08 05:22:20;;;;;;;48.28;43.42;;;;;;;;;;7303944;19;140543;-76
2023/08/08 05:24:48;;;;;;;48.70;43.72;;;;;;;;;;7304956;19;140516;-75
2023/08/08 05:27:15;;;;;;;51.08;45.72;;;;;;;;;;7304587;19;141834;-76
2023/08/08 05:29:42;;;;;;;40.53;36.88;;;;;;;;;;7304362;19;140449;-76
2023/08/08 05:32:09;;;;;;;50.00;44.80;;;;;;;;;;7303935;19;140444;-76
2023/08/08 05:34:36;;;;;;;48.90;43.97;;;;;;;;;;7303766;19;141364;-76
2023/08/08 05:37:03;;;;;;;51.50;46.13;;;;;;;;;;7302922;19;141849;-76
2023/08/08 05:39:44;;;;;;;40.40;36.88;;;;;;;;;;7304710;19;140533;-76
2023/08/08 05:42:11;;;;;;;60.50;53.53;;;;;;;;;;7303207;19;140586;-76
2023/08/08 05:44:38;;;;;;;49.60;44.42;;;;;;;;;;7303764;19;140583;-76
2023/08/08 05:47:05;;;;;;;38.90;35.40;;;;;;;;;;7303689;19;143018;-76
2023/08/08 05:49:33;;;;;;;24.95;22.73;;;;;;;;;;7303586;19;140645;-76
2023/08/08 05:51:59;;;;;;;21.83;20.08;;;;;;;;;;7302545;19;140426;-76
2023/08/08 05:54:28;;;;;;;47.38;42.83;;;;;;;;;;7301766;19;141284;-76
2023/08/08 05:56:55;;;;;;;30.63;28.05;;;;;;;;;;7302040;19;142495;-76
2023/08/08 05:59:22;;;;;;;23.83;21.85;;;;;;;;;;7302762;19;140404;-75
2023/08/08 06:01:50;;;;;;;27.88;25.65;;;;;;;;;;7302709;19;140397;-75
2023/08/08 06:04:17;;;;;;;9.90;8.25;;;;;;;;;;7303356;19;140693;-75
2023/08/08 06:06:44;;;;;;;12.90;11.70;;;;;;;;;;7301683;19;141986;-76
2023/08/08 06:09:12;;;;;;;5.72;5.18;;;;;;;;;;7301607;19;140726;-75
2023/08/08 06:11:39;;;;;;;14.60;13.27;;;;;;;;;;7302809;19;140569;-76
2023/08/08 06:14:06;;;;;;;9.20;8.45;;;;;;;;;;7302828;19;141178;-75
2023/08/08 06:16:33;;;;;;;13.05;11.95;;;;;;;;;;7302191;19;142932;-75
2023/08/08 06:19:00;;;;;;;3.28;2.35;;;;;;;;;;7306321;19;140551;-77
2023/08/08 06:21:27;;;;;;;6.70;3.55;;;;;;;;;;7302021;19;140451;-75
2023/08/08 06:23:57;;;;;;;5.45;3.08;;;;;;;;;;7302637;19;142036;-76
2023/08/08 06:26:24;;;;;;;6.68;4.13;;;;;;;;;;7302410;19;141095;-76
2023/08/08 06:28:52;;;;;;;31.85;29.00;;;;;;;;;;7301665;19;140680;-75
2023/08/08 06:31:19;;;;;;;43.20;39.30;;;;;;;;;;7301201;19;140711;-75
2023/08/08 06:33:46;;;;;;;132.02;89.85;;;;;;;;;;7304051;19;141171;-76
2023/08/08 06:36:13;;;;;;;205.32;120.80;;;;;;;;;;7300665;19;142097;-75
2023/08/08 06:38:41;;;;;;;226.48;128.07;;;;;;;;;;7301171;19;140482;-75
2023/08/08 06:41:08;;;;;;;302.98;155.73;;;;;;;;;;7301019;19;140421;-75
2023/08/08 06:43:35;;;;;;;360.60;178.82;;;;;;;;;;7299040;19;141817;-76
2023/08/08 06:46:02;;;;;;;317.48;160.15;;;;;;;;;;7300577;19;142053;-76
2023/08/08 06:48:29;;;;;;;294.40;152.10;;;;;;;;;;7302025;19;140484;-76
2023/08/08 06:50:56;;;;;;;389.17;189.43;;;;;;;;;;7300919;19;140587;-76
2023/08/08 06:53:23;;;;;;;295.50;153.48;;;;;;;;;;7301048;19;140514;-76
2023/08/08 06:55:51;;;;;;;377.10;188.23;;;;;;;;;;7300614;19;141265;-76
2023/08/08 06:58:18;;;;;;;366.27;184.27;;;;;;;;;;7300666;19;140431;-76
2023/08/08 07:00:45;;;;;;;263.55;142.52;;;;;;;;;;7299910;19;140706;-77
2023/08/08 07:03:13;;;;;;;263.10;142.60;;;;;;;;;;7301227;19;141656;-76
2023/08/08 07:05:41;;;;;;;233.25;131.73;;;;;;;;;;7300571;19;140807;-77
2023/08/08 07:08:09;;;;;;;218.43;127.18;;;;;;;;;;7300129;19;140739;-75
2023/08/08 07:10:36;;;;;;;233.30;132.30;;;;;;;;;;7301469;19;140595;-75
2023/08/08 07:13:05;;;;;;;236.03;134.33;;;;;;;;;;7300591;19;141104;-75
2023/08/08 07:15:33;;;;;;;197.95;118.30;;;;;;;;;;7300811;19;142654;-75
2023/08/08 07:18:00;;;;;;;191.05;115.40;;;;;;;;;;7299635;19;140636;-76
2023/08/08 07:20:28;;;;;;;194.68;116.32;;;;;;;;;;7299382;19;140433;-75
2023/08/08 07:22:55;;;;;;;185.25;111.97;;;;;;;;;;7299949;19;141033;-75
2023/08/08 07:25:24;;;;;;;191.15;114.75;;;;;;;;;;7300189;19;142299;-75
2023/08/08 07:27:51;;;;;;;176.60;108.32;;;;;;;;;;7300305;19;140595;-76
2023/08/08 07:30:18;;;;;;;174.00;107.78;;;;;;;;;;7300141;19;140441;-75
2023/08/08 07:32:46;;;;;;;178.40;110.32;;;;;;;;;;7300016;19;140486;-76
2023/08/08 07:35:13;;;;;;;182.40;111.47;;;;;;;;;;7299062;19;141868;-76
2023/08/08 07:37:40;;;;;;;159.32;101.18;;;;;;;;;;7299005;19;140553;-75
2023/08/08 07:40:17;;;;;;;167.35;105.00;;;;;;;;;;7299124;19;140551;-76
2023/08/08 07:42:45;;;;;;;149.85;95.35;;;;;;;;;;7299395;19;140622;-75
2023/08/08 07:45:12;;;;;;;155.93;100.45;;;;;;;;;;7299116;19;142699;-75
2023/08/08 07:47:39;;;;;;;153.10;98.10;;;;;;;;;;7298654;19;140559;-75
2023/08/08 07:50:08;;;;;;;233.02;130.85;;;;;;;;;;7299299;19;140597;-75
2023/08/08 07:52:35;;;;;;;160.60;101.63;;;;;;;;;;7298008;19;140718;-75
2023/08/08 07:55:03;;;;;;;202.55;118.70;;;;;;;;;;7296580;19;142011;-75
2023/08/08 07:57:31;;;;;;;398.05;193.05;;;;;;;;;;7299228;19;140579;-75
2023/08/08 07:59:58;;;;;;;368.38;180.80;;;;;;;;;;7298956;19;140643;-76
2023/08/08 08:02:26;;;;;;;219.02;124.97;;;;;;;;;;7299045;19;140723;-76
2023/08/08 08:04:53;;;;;;;232.75;128.85;;;;;;;;;;7298455;19;142243;-76
2023/08/08 08:07:20;;;;;;;200.35;117.18;;;;;;;;;;7297729;19;140620;-76
2023/08/08 08:09:47;;;;;;;207.93;120.40;;;;;;;;;;7298898;19;140448;-76
2023/08/08 08:12:15;;;;;;;204.45;119.57;;;;;;;;;;7299303;19;141084;-76
2023/08/08 08:14:42;;;;;;;155.73;98.88;;;;;;;;;;7305163;19;142150;-77
2023/08/08 08:17:09;;;;;;;204.02;118.57;;;;;;;;;;7305429;19;140395;-76
2023/08/08 08:19:36;;;;;;;160.23;101.32;;;;;;;;;;7305582;19;140408;-76
2023/08/08 08:22:03;;;;;;;173.68;106.85;;;;;;;;;;7304280;19;140502;-76
2023/08/08 08:24:31;;;;;;;146.90;96.70;;;;;;;;;;7304526;19;141812;-76
2023/08/08 08:26:58;;;;;;;174.18;107.97;;;;;;;;;;7305415;19;140745;-76
2023/08/08 08:29:25;;;;;;;153.95;99.43;;;;;;;;;;7304524;19;140865;-76
2023/08/08 08:31:52;;;;;;;132.48;89.82;;;;;;;;;;7304763;19;141978;-76
2023/08/08 08:34:19;;;;;;;147.13;96.07;;;;;;;;;;7304824;19;143009;-76
2023/08/08 08:36:46;;;;;;;158.30;101.00;;;;;;;;;;7303897;19;140464;-76
2023/08/08 08:39:13;;;;;;;136.55;91.78;;;;;;;;;;7304672;19;140522;-76
2023/08/08 08:41:41;;;;;;;151.82;98.15;;;;;;;;;;7304436;19;141941;-76
2023/08/08 08:44:08;;;;;;;141.15;93.13;;;;;;;;;;7304181;19;143010;-76
2023/08/08 08:46:36;;;;;;;145.93;96.45;;;;;;;;;;7304367;19;140655;-76
2023/08/08 08:49:05;;;;;;;137.95;92.68;;;;;;;;;;7304715;19;140599;-77
2023/08/08 08:51:32;;;;;;;141.00;92.53;;;;;;;;;;7303479;19;141510;-76
2023/08/08 08:53:59;;;;;;;108.47;77.78;;;;;;;;;;7303429;19;142165;-77
2023/08/08 08:56:27;;;;;;;105.65;77.10;;;;;;;;;;7304526;19;140683;-76
2023/08/08 08:58:54;;;;;;;101.40;74.88;;;;;;;;;;7304534;19;140530;-76
2023/08/08 09:01:22;;;;;;;95.90;71.72;;;;;;;;;;7303529;19;141237;-76
2023/08/08 09:03:49;;;;;;;96.43;71.95;;;;;;;;;;7303852;19;142509;-77
2023/08/08 09:06:19;;;;;;;99.93;72.55;;;;;;;;;;7303781;19;140383;-76
2023/08/08 09:08:47;;;;;;;93.70;70.65;;;;;;;;;;7302688;19;140516;-76
2023/08/08 09:11:15;;;;;;;86.97;66.72;;;;;;;;;;7303078;19;140520;-76
2023/08/08 09:13:42;;;;;;;92.30;69.47;;;;;;;;;;7304008;19;140589;-76
2023/08/08 09:16:09;;;;;;;84.40;65.28;;;;;;;;;;7303387;19;140458;-76
2023/08/08 09:18:38;;;;;;;75.70;61.40;;;;;;;;;;7301405;19;140512;-77
2023/08/08 09:21:05;;;;;;;75.15;61.08;;;;;;;;;;7303364;19;140974;-77
2023/08/08 09:23:32;;;;;;;70.15;59.17;;;;;;;;;;7301530;19;141916;-76
2023/08/08 09:26:00;;;;;;;73.93;60.28;;;;;;;;;;7301615;19;140609;-76
2023/08/08 09:28:27;;;;;;;73.35;60.38;;;;;;;;;;7303828;19;140539;-76
2023/08/08 09:30:55;;;;;;;84.82;65.07;;;;;;;;;;7301772;19;141731;-76
2023/08/08 09:33:23;;;;;;;76.75;62.75;;;;;;;;;;7302656;19;140716;-76
2023/08/08 09:35:54;;;;;;;73.05;60.17;;;;;;;;;;7302968;19;140553;-77
2023/08/08 09:38:21;;;;;;;57.33;51.28;;;;;;;;;;7303433;19;140714;-76
2023/08/08 09:40:49;;;;;;;65.03;56.60;;;;;;;;;;7303201;19;141075;-76
2023/08/08 09:43:16;;;;;;;51.40;46.25;;;;;;;;;;7303714;19;142422;-76
2023/08/08 09:45:44;;;;;;;59.38;52.85;;;;;;;;;;7303660;19;140458;-76
2023/08/08 09:48:11;;;;;;;50.05;45.10;;;;;;;;;;7303068;19;140304;-77
2023/08/08 09:50:40;;;;;;;50.60;45.42;;;;;;;;;;7303219;19;142088;-77
2023/08/08 09:53:07;;;;;;;50.97;45.70;;;;;;;;;;7301977;19;142150;-77
2023/08/08 09:55:35;;;;;;;53.45;47.95;;;;;;;;;;7302741;19;140564;-78
2023/08/08 09:58:02;;;;;;;53.95;48.20;;;;;;;;;;7303109;19;140416;-77
2023/08/08 10:00:30;;;;;;;52.55;47.05;;;;;;;;;;7302262;19;141309;-76
2023/08/08 10:03:00;;;;;;;54.70;48.95;;;;;;;;;;7303116;19;142090;-77
2023/08/08 10:05:28;;;;;;;51.73;46.37;;;;;;;;;;7302524;19;140853;-77
2023/08/08 10:07:56;;;;;;;55.15;49.25;;;;;;;;;;7301530;19;140743;-76
2023/08/08 10:10:24;;;;;;;56.75;50.65;;;;;;;;;;7302780;19;141123;-76
2023/08/08 10:12:52;;;;;;;59.38;51.95;;;;;;;;;;7302628;19;142060;-75
2023/08/08 10:15:19;;;;;;;51.65;46.28;;;;;;;;;;7302575;19;140495;-76
2023/08/08 10:17:47;;;;;;;50.92;45.60;;;;;;;;;;7302817;19;140512;-76
2023/08/08 10:20:18;;;;;;;58.88;52.25;;;;;;;;;;7302514;19;140786;-77
2023/08/08 10:22:46;;;;;;;41.47;37.72;;;;;;;;;;7301690;19;142667;-78
2023/08/08 10:25:40;;;;;;;46.80;42.13;;;;;;;;;;7301119;19;140693;-76
2023/08/08 10:28:12;;;;;;;52.08;46.75;;;;;;;;;;7301703;19;140910;-76
2023/08/08 10:30:53;;;;;;;51.90;46.45;;;;;;;;;;7301629;19;140592;-76
2023/08/08 10:33:21;;;;;;;48.85;44.03;;;;;;;;;;7301985;19;142423;-76
2023/08/08 10:36:03;;;;;;;49.58;44.65;;;;;;;;;;7300311;19;140600;-76
2023/08/08 10:38:44;;;;;;;50.50;45.17;;;;;;;;;;7304090;19;140514;-76
2023/08/08 10:41:15;;;;;;;43.90;39.65;;;;;;;;;;7299804;19;140683;-76
2023/08/08 10:43:49;;;;;;;25.15;23.15;;;;;;;;;;7300126;19;142737;-76
2023/08/08 10:46:24;;;;;;;32.65;30.08;;;;;;;;;;7302472;19;140591;-76
2023/08/08 10:48:52;;;;;;;26.92;24.77;;;;;;;;;;7301666;19;140611;-76
2023/08/08 10:51:19;;;;;;;31.48;28.73;;;;;;;;;;7301224;19;141871;-76
2023/08/08 10:53:50;;;;;;;31.23;28.52;;;;;;;;;;7300489;19;143139;-76
2023/08/08 10:56:18;;;;;;;35.97;32.78;;;;;;;;;;7300060;19;140451;-78
2023/08/08 10:58:49;;;;;;;19.00;17.40;;;;;;;;;;7300870;19;141341;-76
2023/08/08 11:01:16;;;;;;;29.08;26.52;;;;;;;;;;7300950;19;141608;-76
2023/08/08 11:03:45;;;;;;;24.30;22.13;;;;;;;;;;7300254;19;142020;-76
2023/08/08 11:06:13;;;;;;;23.02;21.25;;;;;;;;;;7301105;19;140643;-76
2023/08/08 11:08:40;;;;;;;12.50;11.57;;;;;;;;;;7299634;19;140704;-76
2023/08/08 11:11:07;;;;;;;18.27;16.60;;;;;;;;;;7299602;19;141110;-76
2023/08/08 11:13:34;;;;;;;12.98;11.82;;;;;;;;;;7299905;19;140908;-76
2023/08/08 11:16:02;;;;;;;15.60;14.15;;;;;;;;;;7300474;19;140436;-76
2023/08/08 11:18:30;;;;;;;22.52;20.92;;;;;;;;;;7301063;19;141479;-76
2023/08/08 11:20:57;;;;;;;13.43;12.52;;;;;;;;;;7300042;19;141871;-76
2023/08/08 11:23:45;;;;;;;10.30;9.38;;;;;;;;;;7299610;19;140713;-76
2023/08/08 11:26:12;;;;;;;13.23;12.07;;;;;;;;;;7299464;19;140777;-76
2023/08/08 11:28:48;;;;;;;19.30;17.50;;;;;;;;;;7300108;19;140975;-76
2023/08/08 11:31:15;;;;;;;19.02;17.33;;;;;;;;;;7300007;19;141438;-76
2023/08/08 11:33:42;;;;;;;17.08;15.68;;;;;;;;;;7299752;19;140934;-75
2023/08/08 11:36:10;;;;;;;19.30;17.73;;;;;;;;;;7299884;19;140858;-76
2023/08/08 11:38:37;;;;;;;16.58;14.98;;;;;;;;;;7298779;19;140701;-76
2023/08/08 11:41:05;;;;;;;21.45;19.55;;;;;;;;;;7299582;19;140474;-76
2023/08/08 11:43:32;;;;;;;6.53;5.65;;;;;;;;;;7299303;19;141994;-76
2023/08/08 11:46:03;;;;;;;6.50;5.90;;;;;;;;;;7300068;19;140449;-76
2023/08/08 11:48:32;;;;;;;13.73;12.38;;;;;;;;;;7306861;19;140668;-76
2023/08/08 11:50:59;;;;;;;20.17;18.63;;;;;;;;;;7306533;19;141227;-75
2023/08/08 11:53:26;;;;;;;8.15;6.38;;;;;;;;;;7306826;19;140857;-75
2023/08/08 11:55:53;;;;;;;9.15;8.35;;;;;;;;;;7306908;19;140721;-75
2023/08/08 11:58:23;;;;;;;13.15;12.18;;;;;;;;;;7306790;19;140539;-76
2023/08/08 12:00:50;;;;;;;7.28;6.75;;;;;;;;;;7305734;19;141721;-75
2023/08/08 12:03:18;;;;;;;12.88;11.63;;;;;;;;;;7305994;19;142188;-75
2023/08/08 12:05:46;;;;;;;18.40;16.60;;;;;;;;;;7306112;19;140446;-75
2023/08/08 12:08:18;;;;;;;9.85;6.18;;;;;;;;;;7304498;19;140736;-76
2023/08/08 12:10:51;;;;;;;6.57;5.97;;;;;;;;;;7305541;19;141206;-75
2023/08/08 12:13:21;;;;;;;7.30;6.70;;;;;;;;;;7305884;19;140730;-75
2023/08/08 12:15:48;;;;;;;5.25;4.70;;;;;;;;;;7304662;19;140562;-75
2023/08/08 12:18:20;;;;;;;9.05;7.88;;;;;;;;;;7305594;19;140636;-75
2023/08/08 12:20:47;;;;;;;13.88;10.25;;;;;;;;;;7305475;19;141501;-75
2023/08/08 12:23:14;;;;;;;7.22;5.72;;;;;;;;;;7304659;19;141817;-75
2023/08/08 12:25:42;;;;;;;7.60;5.75;;;;;;;;;;7305457;19;140523;-76
2023/08/08 12:28:09;;;;;;;8.25;6.55;;;;;;;;;;7305314;19;140468;-76
2023/08/08 12:30:36;;;;;;;7.82;5.78;;;;;;;;;;7305036;19;141183;-76
2023/08/08 12:33:03;;;;;;;10.45;7.88;;;;;;;;;;7304392;19;140867;-76
2023/08/08 12:35:30;;;;;;;8.55;6.88;;;;;;;;;;7304943;19;141297;-76
2023/08/08 12:37:58;;;;;;;10.77;5.47;;;;;;;;;;7305380;19;140562;-76
2023/08/08 12:40:25;;;;;;;5.88;5.38;;;;;;;;;;7305294;19;141535;-76
2023/08/08 12:42:52;;;;;;;13.88;12.52;;;;;;;;;;7304716;19;142485;-76
2023/08/08 12:45:19;;;;;;;14.90;13.55;;;;;;;;;;7305148;19;140636;-76
2023/08/08 12:47:46;;;;;;;6.57;4.80;;;;;;;;;;7305236;19;140607;-76
2023/08/08 12:50:15;;;;;;;5.85;4.93;;;;;;;;;;7304462;19;140905;-76
2023/08/08 12:52:42;;;;;;;9.70;7.80;;;;;;;;;;7304895;19;142607;-76
2023/08/08 12:55:11;;;;;;;9.48;8.88;;;;;;;;;;7304520;19;140412;-76
2023/08/08 12:57:38;;;;;;;7.35;4.00;;;;;;;;;;7303274;19;140636;-76
2023/08/08 13:00:06;;;;;;;9.45;8.60;;;;;;;;;;7303630;19;140953;-77
2023/08/08 13:02:33;;;;;;;9.75;7.13;;;;;;;;;;7304951;19;142687;-76
2023/08/08 13:05:03;;;;;;;6.28;3.30;;;;;;;;;;7303789;19;141272;-77
2023/08/08 13:07:30;;;;;;;6.22;4.65;;;;;;;;;;7305169;19;140555;-76
2023/08/08 13:09:57;;;;;;;8.80;7.93;;;;;;;;;;7304002;19;141700;-76
2023/08/08 13:12:24;;;;;;;6.75;4.93;;;;;;;;;;7304219;19;142108;-76
2023/08/08 13:14:51;;;;;;;13.55;12.55;;;;;;;;;;7304812;19;140709;-75
2023/08/08 13:17:18;;;;;;;12.85;11.90;;;;;;;;;;7304392;19;140542;-78
2023/08/08 13:19:46;;;;;;;7.53;5.25;;;;;;;;;;7302991;19;140493;-75
2023/08/08 13:22:13;;;;;;;40.47;28.25;;;;;;;;;;7304770;19;140808;-77
2023/08/08 13:24:40;;;;;;;13.63;8.25;;;;;;;;;;7303788;19;140470;-76
2023/08/08 13:27:07;;;;;;;7.53;2.75;;;;;;;;;;7303869;19;140632;-79
2023/08/08 13:29:34;;;;;;;4.10;2.25;;;;;;;;;;7301953;19;141285;-79
2023/08/08 13:32:01;;;;;;;9.25;4.22;;;;;;;;;;7302532;19;141886;-75
2023/08/08 13:34:29;;;;;;;6.47;1.80;;;;;;;;;;7303908;19;140517;-77
2023/08/08 13:36:56;;;;;;;3.20;1.15;;;;;;;;;;7303346;19;140750;-75
2023/08/08 13:39:23;;;;;;;6.05;1.58;;;;;;;;;;7302005;19;141209;-76
2023/08/08 13:41:52;;;;;;;6.10;2.15;;;;;;;;;;7301241;19;141847;-75
2023/08/08 13:44:19;;;;;;;4.63;1.50;;;;;;;;;;7302840;19;140534;-76
2023/08/08 13:46:46;;;;;;;5.82;1.65;;;;;;;;;;7302226;19;140610;-75
2023/08/08 13:49:13;;;;;;;3.08;1.42;;;;;;;;;;7302563;19;141769;-74
2023/08/08 13:51:40;;;;;;;4.22;1.35;;;;;;;;;;7301399;19;142030;-75
2023/08/08 13:54:09;;;;;;;3.45;1.30;;;;;;;;;;7301984;19;140598;-77
2023/08/08 13:56:36;;;;;;;3.60;1.38;;;;;;;;;;7302232;19;140471;-76
2023/08/08 13:59:03;;;;;;;4.85;1.75;;;;;;;;;;7302355;19;141705;-76
2023/08/08 14:01:30;;;;;;;4.07;1.70;;;;;;;;;;7302382;19;141979;-75
2023/08/08 14:03:58;;;;;;;4.10;1.25;;;;;;;;;;7302532;19;140316;-76
2023/08/08 14:06:25;;;;;;;4.82;1.67;;;;;;;;;;7302519;19;140537;-76
2023/08/08 14:08:52;;;;;;;2.30;1.13;;;;;;;;;;7300677;19;141926;-76
2023/08/08 14:11:19;;;;;;;2.80;0.93;;;;;;;;;;7299906;19;141262;-75